Time;durP1;ratioP1;P1;durP2;ratioP2;P2;SDS_P1;SDS_P2;PMS_P1;PMS_P2;Temp;Humidity;BMP_temperature;BMP_pressure;BME280_temperature;BME280_humidity;BME280_pressure;Samples;Min_cycle;Max_cycle;Signal;HPM_P1;HPM_P2
2022/11/21 00:00:53;;;;;;;145.87;76.82;;;;;;;-1.68;100.00;97293.77;1714677;82;21404;-77
2022/11/21 00:03:20;;;;;;;150.25;75.30;;;;;;;-1.76;100.00;97295.66;1713985;83;20976;-77
2022/11/21 00:05:47;;;;;;;158.03;79.10;;;;;;;-1.84;100.00;97287.97;1714464;83;21019;-81
2022/11/21 00:08:16;;;;;;;154.15;78.50;;;;;;;-1.87;100.00;97280.45;1714105;82;21046;-77
2022/11/21 00:10:44;;;;;;;162.10;81.05;;;;;;;-1.88;100.00;97279.31;1714436;83;21412;-81
2022/11/21 00:13:13;;;;;;;158.00;79.75;;;;;;;-1.88;100.00;97276.17;1714204;83;21066;-77
2022/11/21 00:15:40;;;;;;;157.67;80.85;;;;;;;-1.90;100.00;97273.42;1714438;83;21018;-81
2022/11/21 00:18:07;;;;;;;152.40;78.80;;;;;;;-1.92;100.00;97272.31;1714117;83;21658;-77
2022/11/21 00:20:35;;;;;;;159.37;73.95;;;;;;;-1.96;100.00;97275.64;1714278;83;21523;-77
2022/11/21 00:23:03;;;;;;;145.07;70.40;;;;;;;-2.03;100.00;97267.73;1714552;83;21427;-77
2022/11/21 00:25:29;;;;;;;115.75;63.33;;;;;;;-2.11;100.00;97266.67;1714282;83;21428;-77
2022/11/21 00:27:56;;;;;;;100.20;50.05;;;;;;;-2.13;100.00;97256.80;1714218;83;20971;-81
2022/11/21 00:30:23;;;;;;;99.05;49.58;;;;;;;-2.12;100.00;97257.89;1714055;83;20974;-77
2022/11/21 00:32:50;;;;;;;114.37;57.83;;;;;;;-2.13;100.00;97252.81;1712518;82;21037;-79
2022/11/21 00:35:17;;;;;;;96.90;50.25;;;;;;;-2.19;100.00;97247.84;1712802;83;21065;-82
2022/11/21 00:37:44;;;;;;;108.27;53.23;;;;;;;-2.16;100.00;97249.24;1712766;82;20998;-81
2022/11/21 00:40:11;;;;;;;147.07;68.12;;;;;;;-2.18;100.00;97251.31;1712764;83;21065;-77
2022/11/21 00:42:38;;;;;;;151.40;73.12;;;;;;;-2.20;100.00;97253.38;1713652;83;21030;-81
2022/11/21 00:45:06;;;;;;;138.77;66.50;;;;;;;-2.21;100.00;97241.95;1714464;83;21043;-76
2022/11/21 00:47:32;;;;;;;117.10;61.08;;;;;;;-2.22;100.00;97243.47;1714222;82;20979;-81
2022/11/21 00:49:59;;;;;;;109.95;56.33;;;;;;;-2.25;100.00;97240.74;1714375;83;20948;-77
2022/11/21 00:52:26;;;;;;;119.35;59.25;;;;;;;-2.29;100.00;97243.55;1714252;83;21066;-77
2022/11/21 00:54:53;;;;;;;125.40;63.15;;;;;;;-2.33;100.00;97250.30;1714308;83;20951;-81
2022/11/21 00:57:20;;;;;;;114.08;59.67;;;;;;;-2.33;100.00;97256.42;1713991;82;21081;-77
2022/11/21 00:59:47;;;;;;;101.25;54.00;;;;;;;-2.36;100.00;97253.39;1714382;83;21034;-76
2022/11/21 01:02:14;;;;;;;103.30;58.33;;;;;;;-2.40;100.00;97257.49;1714169;83;21019;-81
2022/11/21 01:04:41;;;;;;;122.22;59.80;;;;;;;-2.44;100.00;97247.02;1714372;83;21007;-81
2022/11/21 01:07:08;;;;;;;101.67;57.85;;;;;;;-2.46;100.00;97239.80;1714369;82;21030;-81
2022/11/21 01:09:35;;;;;;;113.10;55.73;;;;;;;-2.52;100.00;97237.48;1714158;83;21454;-81
2022/11/21 01:12:01;;;;;;;112.92;58.87;;;;;;;-2.52;100.00;97236.16;1714359;83;20967;-81
2022/11/21 01:14:28;;;;;;;119.67;64.87;;;;;;;-2.54;100.00;97230.78;1713995;83;20997;-77
2022/11/21 01:16:55;;;;;;;115.62;60.50;;;;;;;-2.57;100.00;97224.85;1714377;83;21015;-81
2022/11/21 01:19:22;;;;;;;115.42;56.95;;;;;;;-2.58;100.00;97225.08;1713960;83;21700;-81
2022/11/21 01:21:49;;;;;;;100.85;52.80;;;;;;;-2.65;100.00;97226.95;1714271;83;21036;-81
2022/11/21 01:24:16;;;;;;;100.97;49.80;;;;;;;-2.70;100.00;97226.80;1713956;83;20979;-77
2022/11/21 01:26:43;;;;;;;101.05;49.60;;;;;;;-2.73;100.00;97231.22;1714433;83;21027;-81
2022/11/21 01:29:10;;;;;;;96.28;45.78;;;;;;;-2.79;100.00;97227.58;1714043;83;21018;-81
2022/11/21 01:31:36;;;;;;;80.45;40.58;;;;;;;-2.78;100.00;97229.72;1717977;83;21531;-76
2022/11/21 01:34:03;;;;;;;83.90;43.30;;;;;;;-2.77;100.00;97233.47;1718898;83;21022;-81
2022/11/21 01:36:31;;;;;;;93.40;44.63;;;;;;;-2.74;100.00;97222.42;1719431;83;20991;-77
2022/11/21 01:39:02;;;;;;;106.12;53.78;;;;;;;-2.73;100.00;97225.41;1719170;83;20988;-81
2022/11/21 01:41:34;;;;;;;105.35;51.80;;;;;;;-2.71;100.00;97219.36;1718453;83;20991;-81
2022/11/21 01:44:23;;;;;;;96.67;50.30;;;;;;;-2.75;100.00;97223.97;1714027;82;21042;-76
2022/11/21 01:46:50;;;;;;;;;;;;;;;-2.77;100.00;97232.14;1716745;82;20976;-81
2022/11/21 01:49:26;;;;;;;85.90;41.28;;;;;;;-2.78;100.00;97242.46;1714008;83;20144;-81
2022/11/21 01:52:14;;;;;;;78.10;39.98;;;;;;;-2.81;100.00;97242.09;1714543;83;20964;-77
2022/11/21 01:54:52;;;;;;;99.92;50.98;;;;;;;-2.88;100.00;97241.61;1714449;82;21507;-79
2022/11/21 01:57:28;;;;;;;94.83;49.30;;;;;;;-2.87;100.00;97238.44;1714287;83;21030;-77
2022/11/21 02:00:12;;;;;;;92.00;48.48;;;;;;;-2.85;100.00;97235.86;1714298;82;21439;-77
2022/11/21 02:02:45;;;;;;;84.92;45.35;;;;;;;-2.87;100.00;97229.16;1706314;83;21562;-77
2022/11/21 02:05:20;;;;;;;76.62;39.45;;;;;;;-2.90;100.00;97237.55;1714034;82;21412;-81
2022/11/21 02:07:47;;;;;;;84.32;41.37;;;;;;;-2.93;100.00;97233.46;1714280;82;21416;-77
2022/11/21 02:10:14;;;;;;;86.42;39.88;;;;;;;-2.97;100.00;97226.97;1714258;83;21415;-81
2022/11/21 02:12:50;;;;;;;79.25;39.50;;;;;;;-3.02;100.00;97232.09;1713926;83;21113;-81
2022/11/21 02:15:18;;;;;;;76.53;38.63;;;;;;;-3.04;100.00;97236.80;1704360;83;20998;-81
2022/11/21 02:17:45;;;;;;;73.35;39.98;;;;;;;-3.05;100.00;97239.66;1714084;83;21070;-77
2022/11/21 02:20:15;;;;;;;77.42;38.83;;;;;;;-3.05;100.00;97245.78;1714332;83;21454;-77
2022/11/21 02:22:53;;;;;;;74.32;36.17;;;;;;;-3.06;100.00;97243.34;1714023;83;21715;-81
2022/11/21 02:25:21;;;;;;;75.90;39.83;;;;;;;-3.08;100.00;97241.39;1714355;82;20963;-77
2022/11/21 02:27:50;;;;;;;81.50;40.70;;;;;;;-3.16;100.00;97245.94;1714200;83;21407;-81
2022/11/21 02:30:17;;;;;;;82.15;41.73;;;;;;;-3.18;100.00;97240.02;1715197;82;21012;-81
2022/11/21 02:32:47;;;;;;;75.55;41.05;;;;;;;-3.27;100.00;97243.93;1719181;83;20976;-81
2022/11/21 02:35:16;;;;;;;85.45;45.28;;;;;;;-3.25;100.00;97241.06;1719378;83;21036;-77
2022/11/21 02:37:45;;;;;;;75.08;39.80;;;;;;;-3.24;100.00;97241.39;1719043;83;21409;-77
2022/11/21 02:40:17;;;;;;;76.22;38.28;;;;;;;-3.22;100.00;97232.72;1719341;83;20964;-76
2022/11/21 02:43:06;;;;;;;60.52;34.38;;;;;;;-3.21;100.00;97236.98;1715119;83;21015;-76
2022/11/21 02:45:36;;;;;;;;;;;;;;;-3.23;100.00;97231.91;1716808;83;21018;-81
2022/11/21 02:48:04;;;;;;;56.33;28.52;;;;;;;-3.34;100.00;97231.22;1714153;83;21175;-81
2022/11/21 02:50:37;;;;;;;73.12;38.78;;;;;;;-3.39;100.00;97228.92;1714038;83;21519;-79
2022/11/21 02:53:05;;;;;;;63.30;31.10;;;;;;;-3.42;100.00;97224.34;1713987;83;20975;-77
2022/11/21 02:55:32;;;;;;;65.93;33.50;;;;;;;-3.47;100.00;97220.18;1714387;82;21007;-76
2022/11/21 02:57:58;;;;;;;58.17;29.65;;;;;;;-3.49;100.00;97214.28;1714169;83;21066;-81
2022/11/21 03:00:25;;;;;;;66.37;34.53;;;;;;;-3.49;100.00;97206.34;1714281;83;21042;-81
2022/11/21 03:02:53;;;;;;;72.75;35.68;;;;;;;-3.49;100.00;97203.69;1714062;83;20963;-77
2022/11/21 03:05:20;;;;;;;67.97;34.73;;;;;;;-3.51;100.00;97203.58;1714379;82;20983;-77
2022/11/21 03:07:47;;;;;;;60.30;32.80;;;;;;;-3.52;100.00;97208.06;1714152;83;20956;-77
2022/11/21 03:10:14;;;;;;;62.30;30.62;;;;;;;-3.54;100.00;97207.47;1714377;83;20956;-81
2022/11/21 03:12:42;;;;;;;68.05;30.75;;;;;;;-3.52;100.00;97208.06;1714209;82;21846;-80
2022/11/21 03:15:12;;;;;;;57.50;30.50;;;;;;;-3.50;100.00;97197.28;1714184;83;20987;-76
2022/11/21 03:17:39;;;;;;;62.48;31.70;;;;;;;-3.51;100.00;97202.25;1714253;83;21038;-76
2022/11/21 03:20:07;;;;;;;67.17;36.08;;;;;;;-3.57;100.00;97195.98;1714081;82;21476;-81
2022/11/21 03:22:34;;;;;;;57.88;30.82;;;;;;;-3.62;100.00;97198.44;1714184;83;21054;-81
2022/11/21 03:25:00;;;;;;;53.90;29.32;;;;;;;-3.63;100.00;97184.89;1714020;83;21904;-77
2022/11/21 03:27:27;;;;;;;57.48;30.55;;;;;;;-3.62;100.00;97186.52;1714172;83;22097;-81
2022/11/21 03:29:54;;;;;;;64.15;33.90;;;;;;;-3.58;100.00;97192.22;1713924;83;20963;-81
2022/11/21 03:32:21;;;;;;;68.83;35.25;;;;;;;-3.56;100.00;97188.84;1712729;82;21045;-77
2022/11/21 03:34:48;;;;;;;59.40;32.42;;;;;;;-3.57;100.00;97185.90;1712508;83;21022;-81
2022/11/21 03:37:15;;;;;;;56.35;29.77;;;;;;;-3.55;100.00;97175.91;1712742;82;21475;-76
2022/11/21 03:39:42;;;;;;;55.92;29.75;;;;;;;-3.60;100.00;97175.19;1712369;83;21408;-76
2022/11/21 03:42:09;;;;;;;57.33;30.52;;;;;;;-3.64;100.00;97179.30;1713434;83;21053;-76
2022/11/21 03:44:36;;;;;;;54.77;26.23;;;;;;;-3.61;100.00;97184.68;1713985;83;20980;-77
2022/11/21 03:47:03;;;;;;;55.45;26.97;;;;;;;-3.63;100.00;97182.24;1714350;83;21014;-81
2022/11/21 03:49:30;;;;;;;59.55;30.55;;;;;;;-3.62;100.00;97187.84;1713927;82;21280;-81
2022/11/21 03:51:57;;;;;;;57.88;29.02;;;;;;;-3.63;100.00;97190.19;1714177;83;21423;-77
2022/11/21 03:54:24;;;;;;;58.25;29.70;;;;;;;-3.63;100.00;97196.81;1713934;83;20980;-81
2022/11/21 03:56:50;;;;;;;54.53;29.23;;;;;;;-3.61;100.00;97190.78;1714284;83;21010;-77
2022/11/21 03:59:17;;;;;;;48.08;24.70;;;;;;;-3.62;100.00;97194.97;1713919;83;20978;-77
2022/11/21 04:01:45;;;;;;;53.52;26.80;;;;;;;-3.65;100.00;97190.92;1714258;83;21651;-77
2022/11/21 04:04:12;;;;;;;44.45;24.60;;;;;;;-3.66;100.00;97195.11;1713989;82;21035;-76
2022/11/21 04:06:39;;;;;;;52.23;26.80;;;;;;;-3.69;100.00;97194.99;1714227;83;21417;-77
2022/11/21 04:09:06;;;;;;;44.93;25.00;;;;;;;-3.71;100.00;97195.72;1713948;83;21415;-81
2022/11/21 04:11:33;;;;;;;56.55;27.60;;;;;;;-3.72;100.00;97192.26;1714273;83;20947;-77
2022/11/21 04:13:59;;;;;;;50.38;25.02;;;;;;;-3.71;100.00;97188.59;1713979;83;20990;-77
2022/11/21 04:16:26;;;;;;;50.80;24.12;;;;;;;-3.69;100.00;97191.83;1714199;83;21435;-81
2022/11/21 04:18:53;;;;;;;48.00;23.12;;;;;;;-3.70;100.00;97187.56;1714052;83;20932;-77
2022/11/21 04:21:20;;;;;;;49.35;23.38;;;;;;;-3.71;100.00;97181.16;1714090;83;20963;-82
2022/11/21 04:23:47;;;;;;;49.23;25.15;;;;;;;-3.72;100.00;97175.56;1714091;83;20975;-81
2022/11/21 04:26:14;;;;;;;54.38;26.05;;;;;;;-3.75;100.00;97176.80;1714031;83;21927;-76
2022/11/21 04:28:41;;;;;;;44.90;22.30;;;;;;;-3.75;100.00;97168.86;1713923;83;21463;-76
2022/11/21 04:31:08;;;;;;;45.23;23.32;;;;;;;-3.74;100.00;97177.09;1713496;83;20990;-76
2022/11/21 04:33:35;;;;;;;42.48;24.00;;;;;;;-3.73;100.00;97172.61;1712515;82;21053;-76
2022/11/21 04:36:01;;;;;;;50.63;23.10;;;;;;;-3.77;100.00;97166.91;1712848;83;21081;-77
2022/11/21 04:38:28;;;;;;;44.63;25.23;;;;;;;-3.75;100.00;97169.38;1712424;82;21698;-77
2022/11/21 04:40:55;;;;;;;52.10;23.12;;;;;;;-3.76;100.00;97170.37;1712741;83;21481;-81
2022/11/21 04:43:22;;;;;;;40.12;21.07;;;;;;;-3.74;100.00;97161.73;1713940;83;20959;-81
2022/11/21 04:45:49;;;;;;;39.48;21.02;;;;;;;-3.76;100.00;97160.62;1714190;83;21042;-81
2022/11/21 04:48:16;;;;;;;49.00;24.37;;;;;;;-3.81;100.00;97162.25;1714198;83;20995;-81
2022/11/21 04:50:44;;;;;;;48.23;25.25;;;;;;;-3.85;100.00;97163.16;1714211;83;21003;-76
2022/11/21 04:53:11;;;;;;;42.03;24.55;;;;;;;-3.90;100.00;97159.54;1714078;83;21090;-81
2022/11/21 04:55:38;;;;;;;45.98;22.52;;;;;;;-3.90;100.00;97164.84;1714245;83;21039;-81
2022/11/21 04:58:05;;;;;;;39.48;20.62;;;;;;;-3.91;100.00;97152.11;1714149;83;21423;-81
2022/11/21 05:00:32;;;;;;;38.45;22.35;;;;;;;-3.90;100.00;97152.41;1713807;83;20967;-80
2022/11/21 05:03:04;;;;;;;52.88;26.70;;;;;;;-3.91;100.00;97153.44;1714132;83;21046;-81
2022/11/21 05:05:31;;;;;;;50.25;27.55;;;;;;;-3.90;100.00;97153.73;1713641;82;20979;-77
2022/11/21 05:07:59;;;;;;;48.78;24.95;;;;;;;-3.87;100.00;97157.27;1713901;83;20994;-77
2022/11/21 05:10:26;;;;;;;55.80;28.02;;;;;;;-3.82;100.00;97159.31;1713932;82;20975;-77
2022/11/21 05:15:45;;;;;;;52.73;26.05;;;;;;;-3.78;100.00;97145.94;1714034;83;21057;-81
2022/11/21 05:18:12;;;;;;;49.85;26.73;;;;;;;-3.78;100.00;97148.08;1714089;82;21035;-81
2022/11/21 05:20:38;;;;;;;45.83;24.75;;;;;;;-3.73;100.00;97144.30;1714059;82;20991;-81
2022/11/21 05:23:05;;;;;;;51.13;27.95;;;;;;;-3.67;100.00;97143.98;1714186;83;21283;-76
2022/11/21 05:25:32;;;;;;;55.05;28.60;;;;;;;-3.67;100.00;97133.88;1714054;83;21400;-81
2022/11/21 05:27:59;;;;;;;57.13;26.37;;;;;;;-3.64;100.00;97136.12;1714060;83;20991;-81
2022/11/21 05:30:26;;;;;;;53.13;26.87;;;;;;;-3.63;100.00;97131.93;1715183;83;20992;-81
2022/11/21 05:32:53;;;;;;;52.45;27.42;;;;;;;-3.60;100.00;97124.88;1719364;83;20980;-81
2022/11/21 05:35:20;;;;;;;57.98;30.00;;;;;;;-3.61;100.00;97126.42;1719306;83;20972;-77
2022/11/21 05:37:47;;;;;;;61.58;32.28;;;;;;;-3.63;100.00;97122.66;1719386;83;21381;-76
2022/11/21 05:40:14;;;;;;;67.00;31.97;;;;;;;-3.63;100.00;97117.88;1719230;83;21006;-76
2022/11/21 05:45:29;;;;;;;70.00;36.60;;;;;;;-3.58;100.00;97119.39;1714211;83;20987;-77
2022/11/21 05:47:55;;;;;;;57.67;31.15;;;;;;;-3.52;100.00;97115.88;1714124;83;21015;-81
2022/11/21 05:50:22;;;;;;;73.78;36.40;;;;;;;-3.49;100.00;97111.50;1713852;83;20987;-76
2022/11/21 05:52:49;;;;;;;62.80;35.63;;;;;;;-3.47;100.00;97104.95;1714090;83;21685;-81
2022/11/21 05:55:16;;;;;;;59.70;32.65;;;;;;;-3.47;100.00;97097.52;1713918;83;21399;-77
2022/11/21 05:57:43;;;;;;;59.90;32.93;;;;;;;-3.44;100.00;97101.06;1715979;82;20969;-77
2022/11/21 06:00:11;;;;;;;58.90;31.07;;;;;;;-3.39;100.00;97102.56;1721981;83;20985;-77
2022/11/21 06:05:23;;;;;;;61.48;31.40;;;;;;;-3.37;100.00;97104.48;1714189;83;21774;-77
2022/11/21 06:07:50;;;;;;;65.85;34.80;;;;;;;-3.38;100.00;97103.38;1729158;82;21496;-81
2022/11/21 06:10:17;;;;;;;59.42;33.18;;;;;;;-3.40;100.00;97104.92;1729050;82;20979;-81
2022/11/21 06:12:44;;;;;;;52.78;28.80;;;;;;;-3.43;100.00;97106.65;1707017;83;21026;-77
2022/11/21 06:15:11;;;;;;;60.20;32.53;;;;;;;-3.44;100.00;97093.92;1713090;83;20998;-76
2022/11/21 06:17:38;;;;;;;54.15;30.23;;;;;;;-3.46;100.00;97099.14;1713689;83;21262;-81
2022/11/21 06:20:06;;;;;;;64.05;31.10;;;;;;;-3.53;100.00;97101.82;1714057;83;20995;-77
2022/11/21 06:22:33;;;;;;;73.10;37.08;;;;;;;-3.55;100.00;97106.52;1714288;82;21407;-77
2022/11/21 06:25:00;;;;;;;79.75;39.80;;;;;;;-3.57;100.00;97107.77;1714030;83;20997;-81
2022/11/21 06:27:28;;;;;;;66.60;33.58;;;;;;;-3.55;100.00;97107.04;1714079;83;21034;-77
2022/11/21 06:29:55;;;;;;;71.60;34.25;;;;;;;-3.52;100.00;97109.25;1698783;83;20993;-81
2022/11/21 06:32:22;;;;;;;56.35;28.32;;;;;;;-3.52;100.00;97120.66;1695751;83;20973;-81
2022/11/21 06:34:49;;;;;;;69.15;30.68;;;;;;;-3.49;100.00;97118.13;1679563;85;20985;-81
2022/11/21 06:37:16;;;;;;;63.10;31.27;;;;;;;-3.46;100.00;97116.36;1679823;85;21000;-82
2022/11/21 06:39:42;;;;;;;57.48;32.42;;;;;;;-3.46;100.00;97117.17;1679723;85;20992;-77
2022/11/21 06:42:09;;;;;;;63.05;31.02;;;;;;;-3.46;100.00;97115.03;1706051;81;21008;-82
2022/11/21 06:44:36;;;;;;;65.45;30.88;;;;;;;-3.52;100.00;97121.98;1739167;82;21000;-77
2022/11/21 06:47:03;;;;;;;59.42;28.05;;;;;;;-3.52;100.00;97118.01;1739420;82;20976;-77
2022/11/21 06:49:30;;;;;;;64.87;30.45;;;;;;;-3.52;100.00;97118.52;1726805;81;21029;-77
2022/11/21 06:51:57;;;;;;;68.80;31.62;;;;;;;-3.53;100.00;97108.44;1707737;82;21032;-81
2022/11/21 06:54:24;;;;;;;75.47;37.30;;;;;;;-3.56;100.00;97111.52;1705931;82;21062;-76
2022/11/21 06:56:51;;;;;;;77.20;35.75;;;;;;;-3.57;100.00;97106.45;1706172;83;22008;-81
2022/11/21 06:59:18;;;;;;;63.35;31.68;;;;;;;-3.52;100.00;97112.71;1707281;83;21465;-81
2022/11/21 07:01:45;;;;;;;74.60;37.60;;;;;;;-3.47;100.00;97112.09;1712613;83;21021;-77
2022/11/21 07:04:12;;;;;;;87.55;42.67;;;;;;;-3.45;100.00;97106.87;1712746;82;20978;-76
2022/11/21 07:06:39;;;;;;;86.78;47.20;;;;;;;-3.47;100.00;97106.28;1712725;82;20963;-77
2022/11/21 07:09:06;;;;;;;90.10;45.75;;;;;;;-3.47;100.00;97102.30;1712501;82;21038;-81
2022/11/21 07:11:34;;;;;;;87.88;43.92;;;;;;;-3.43;100.00;97101.35;1699676;83;22070;-77
2022/11/21 07:14:01;;;;;;;80.53;39.95;;;;;;;-3.40;100.00;97094.33;1700055;82;20997;-81
2022/11/21 07:16:30;;;;;;;69.72;34.58;;;;;;;-3.30;100.00;97096.50;1704389;82;21549;-81
2022/11/21 07:18:56;;;;;;;73.67;36.40;;;;;;;-3.19;100.00;97102.43;1712575;82;21044;-81
2022/11/21 07:21:23;;;;;;;76.82;38.80;;;;;;;-3.17;100.00;97094.55;1707648;82;21104;-77
2022/11/21 07:23:50;;;;;;;79.53;41.45;;;;;;;-3.14;100.00;97096.80;1700060;82;21555;-77
2022/11/21 07:26:17;;;;;;;80.67;42.15;;;;;;;-3.09;100.00;97086.05;1707182;82;21041;-81
2022/11/21 07:28:44;;;;;;;80.75;42.80;;;;;;;-3.03;100.00;97091.81;1706790;82;21075;-77
2022/11/21 07:31:11;;;;;;;99.07;41.60;;;;;;;-3.00;100.00;97090.86;1706065;82;21037;-81
2022/11/21 07:33:38;;;;;;;86.30;42.03;;;;;;;-2.95;100.00;97088.90;1705465;82;21145;-77
2022/11/21 07:36:06;;;;;;;73.42;39.63;;;;;;;-2.91;100.00;97080.28;1699122;82;21484;-81
2022/11/21 07:38:32;;;;;;;67.05;34.78;;;;;;;-2.81;100.00;97084.31;1698496;82;21021;-77
2022/11/21 07:40:59;;;;;;;60.83;32.50;;;;;;;-2.68;100.00;97071.72;1708894;82;21131;-76
2022/11/21 07:43:26;;;;;;;71.20;33.00;;;;;;;-2.50;100.00;97066.95;1702789;82;21692;-77
2022/11/21 07:45:53;;;;;;;136.92;52.80;;;;;;;-2.25;100.00;97060.78;1707539;82;21048;-81
2022/11/21 07:48:20;;;;;;;157.57;75.75;;;;;;;-2.04;100.00;97070.45;1704816;82;20993;-77
2022/11/21 07:50:47;;;;;;;132.12;60.28;;;;;;;-1.86;100.00;97060.84;1704250;82;21052;-81
2022/11/21 07:53:14;;;;;;;70.47;38.13;;;;;;;-1.67;100.00;97056.30;1705242;82;21107;-77
2022/11/21 07:55:41;;;;;;;343.23;152.43;;;;;;;-1.51;100.00;97051.16;1714221;82;21667;-81
2022/11/21 07:58:11;;;;;;;261.05;116.30;;;;;;;-1.44;100.00;97050.55;1707257;82;21497;-77
2022/11/21 08:00:41;;;;;;;82.65;43.92;;;;;;;-1.24;100.00;97050.77;1713477;82;21027;-81
2022/11/21 08:03:08;;;;;;;243.52;107.35;;;;;;;-1.06;100.00;97049.87;1682075;83;21543;-81
2022/11/21 08:05:37;;;;;;;151.90;71.95;;;;;;;-0.93;100.00;97049.14;1708305;82;20986;-77
2022/11/21 08:08:08;;;;;;;135.95;62.40;;;;;;;-0.70;100.00;97047.52;1703352;82;21045;-82
2022/11/21 08:10:40;;;;;;;97.00;50.73;;;;;;;-0.54;100.00;97042.83;1701985;82;21433;-77
2022/11/21 08:13:07;;;;;;;83.78;41.83;;;;;;;-0.33;100.00;97038.78;1702535;82;21028;-77
2022/11/21 08:15:34;;;;;;;73.65;39.10;;;;;;;-0.16;100.00;97034.34;1701421;82;21602;-77
2022/11/21 08:18:11;;;;;;;80.65;42.08;;;;;;;-0.01;100.00;97028.50;1710376;82;21533;-77
2022/11/21 08:20:38;;;;;;;82.65;45.28;;;;;;;0.19;100.00;97030.77;1716403;82;21115;-78
2022/11/21 08:23:05;;;;;;;77.62;45.90;;;;;;;0.35;100.00;97028.68;1705060;82;21001;-77
2022/11/21 08:25:33;;;;;;;71.62;37.70;;;;;;;0.48;100.00;97024.38;1695492;82;21034;-77
2022/11/21 08:28:01;;;;;;;60.33;32.30;;;;;;;0.51;100.00;97027.91;1711704;82;21013;-82
2022/11/21 08:30:28;;;;;;;48.90;28.57;;;;;;;0.61;100.00;97025.14;1706058;82;21136;-77
2022/11/21 08:32:57;;;;;;;105.32;51.70;;;;;;;0.68;100.00;97031.91;1711445;82;20969;-77
2022/11/21 08:35:26;;;;;;;78.07;40.90;;;;;;;0.75;100.00;97021.91;1668156;84;20987;-81
2022/11/21 08:37:58;;;;;;;;;;;;;;;0.86;100.00;97021.58;1672460;84;21032;-82
2022/11/21 08:40:26;;;;;;;118.00;58.95;;;;;;;0.95;100.00;97024.12;1653617;84;20675;-77
2022/11/21 08:43:02;;;;;;;81.12;39.03;;;;;;;1.01;100.00;97020.99;1702426;82;21036;-81
2022/11/21 08:45:29;;;;;;;56.90;30.10;;;;;;;1.11;100.00;97015.81;1704227;82;21068;-81
2022/11/21 08:47:56;;;;;;;60.00;32.25;;;;;;;1.24;100.00;97011.48;1715721;82;21061;-77
2022/11/21 08:50:23;;;;;;;78.37;44.95;;;;;;;1.35;100.00;97009.77;1698231;83;21028;-82
2022/11/21 08:52:49;;;;;;;64.82;37.98;;;;;;;1.47;100.00;97008.35;1697459;82;21068;-77
2022/11/21 08:55:16;;;;;;;73.45;40.38;;;;;;;1.61;100.00;97008.26;1716578;82;21573;-82
2022/11/21 08:57:43;;;;;;;74.15;37.33;;;;;;;1.78;100.00;97011.69;1738859;80;21155;-82
2022/11/21 09:00:13;;;;;;;66.25;36.00;;;;;;;1.93;100.00;97015.89;1701937;82;21103;-77
2022/11/21 09:02:40;;;;;;;95.62;47.10;;;;;;;2.07;100.00;97008.85;1702290;82;21167;-77
2022/11/21 09:05:07;;;;;;;90.72;45.33;;;;;;;2.19;100.00;97018.86;1702228;82;20989;-77
2022/11/21 09:07:34;;;;;;;73.50;35.65;;;;;;;2.32;100.00;97025.70;1704258;82;20993;-82
2022/11/21 09:10:03;;;;;;;78.52;39.70;;;;;;;2.47;100.00;97025.84;1703261;82;21787;-77
2022/11/21 09:12:30;;;;;;;72.45;38.08;;;;;;;2.61;100.00;97020.91;1702327;82;21628;-78
2022/11/21 09:20:28;;;;;;;66.22;36.83;;;;;;;2.95;100.00;97010.25;1708750;82;21100;-78
2022/11/21 09:22:55;;;;;;;54.75;31.70;;;;;;;3.12;100.00;97015.47;1706788;82;21058;-78
2022/11/21 09:25:21;;;;;;;72.15;39.58;;;;;;;3.24;100.00;97020.64;1686919;82;21487;-82
2022/11/21 09:27:48;;;;;;;52.17;30.65;;;;;;;3.25;100.00;97015.05;1705474;82;21032;-78
2022/11/21 09:30:15;;;;;;;61.58;32.38;;;;;;;3.26;100.00;97015.86;1712866;82;21019;-82
2022/11/21 09:32:42;;;;;;;69.10;39.38;;;;;;;3.26;100.00;97011.84;1712422;82;20988;-82
2022/11/21 09:35:09;;;;;;;61.55;33.02;;;;;;;3.26;100.00;97011.84;1707967;81;21424;-78
2022/11/21 09:37:37;;;;;;;51.00;28.77;;;;;;;3.26;100.00;97013.17;1693463;82;21130;-82
2022/11/21 09:40:05;;;;;;;84.87;41.33;;;;;;;3.29;100.00;97008.11;1705106;82;21171;-77
2022/11/21 09:43:25;;;;;;;76.05;37.93;;;;;;;3.36;100.00;97007.35;1719927;82;21425;-82
2022/11/21 09:46:00;;;;;;;63.90;31.82;;;;;;;3.49;100.00;97010.09;1694608;82;20993;-78
2022/11/21 09:48:51;;;;;;;61.40;31.82;;;;;;;3.68;100.00;97001.92;1713013;82;21045;-78
2022/11/21 09:51:18;;;;;;;76.67;37.78;;;;;;;3.73;100.00;96999.79;1699905;82;21099;-77
2022/11/21 09:53:59;;;;;;;55.35;28.70;;;;;;;3.75;100.00;96998.19;1704425;82;20990;-82
2022/11/21 09:56:28;;;;;;;47.27;28.07;;;;;;;3.78;100.00;96990.45;1702313;82;21040;-83
2022/11/21 09:59:24;;;;;;;39.50;21.55;;;;;;;3.83;100.00;96998.49;1710872;82;21451;-78
2022/11/21 10:01:51;;;;;;;134.63;69.85;;;;;;;3.85;100.00;96991.02;1700798;82;21712;-84
2022/11/21 10:04:17;;;;;;;52.03;29.77;;;;;;;3.87;100.00;96992.09;1683732;84;21569;-81
2022/11/21 10:07:04;;;;;;;42.58;21.95;;;;;;;3.89;100.00;96989.95;1700893;82;21083;-82
2022/11/21 10:09:57;;;;;;;45.63;19.80;;;;;;;3.93;100.00;96996.39;1705088;82;21036;-81
2022/11/21 10:13:03;;;;;;;32.15;19.37;;;;;;;3.97;100.00;96996.16;1694069;81;21028;-81
2022/11/21 10:15:59;;;;;;;32.30;18.23;;;;;;;4.02;100.00;96988.68;1713968;82;21729;-81
2022/11/21 10:18:58;;;;;;;32.90;19.57;;;;;;;4.05;100.00;96982.78;1698380;82;21034;-76
2022/11/21 10:21:53;;;;;;;31.90;18.92;;;;;;;4.14;100.00;96982.55;1704045;82;20997;-81
2022/11/21 10:24:43;;;;;;;49.38;24.82;;;;;;;4.26;100.00;96987.12;1690630;80;21096;-77
2022/11/21 10:27:32;;;;;;;76.42;33.55;;;;;;;4.39;100.00;96989.32;1701037;82;21033;-78
2022/11/21 10:30:08;;;;;;;128.38;48.48;;;;;;;4.45;100.00;96982.91;1695333;83;21484;-81
2022/11/21 10:32:38;;;;;;;114.50;47.62;;;;;;;4.41;100.00;96982.34;1688914;82;21084;-81
2022/11/21 10:35:34;;;;;;;97.72;42.60;;;;;;;4.41;100.00;96979.66;1703206;82;21147;-81
2022/11/21 10:38:04;;;;;;;61.37;33.08;;;;;;;4.44;100.00;96978.61;1708300;82;21061;-83
2022/11/21 10:40:46;;;;;;;64.50;31.02;;;;;;;4.49;100.00;96985.31;1693817;82;21049;-78
2022/11/21 10:46:19;;;;;;;101.60;52.78;;;;;;;4.55;100.00;96979.97;1700132;82;21064;-82
2022/11/21 10:49:01;;;;;;;72.92;42.00;;;;;;;4.61;100.00;96973.52;1697496;82;21402;-82
2022/11/21 10:52:06;;;;;;;94.70;50.73;;;;;;;4.66;100.00;96973.53;1705068;82;22240;-78
2022/11/21 10:54:33;;;;;;;76.53;34.30;;;;;;;4.59;100.00;96975.13;1701849;82;21584;-82
2022/11/21 10:57:15;;;;;;;61.15;34.43;;;;;;;4.62;100.00;96976.50;1664042;83;21051;-78
2022/11/21 11:00:12;;;;;;;42.73;26.48;;;;;;;4.52;100.00;96974.04;1703076;82;21132;-82
2022/11/21 11:02:40;;;;;;;55.92;27.62;;;;;;;4.49;100.00;96976.46;1703050;82;21048;-78
2022/11/21 11:05:24;;;;;;;61.95;31.30;;;;;;;4.41;100.00;96971.08;1704398;82;20985;-78
2022/11/21 11:08:04;;;;;;;53.15;32.90;;;;;;;4.36;100.00;96971.59;1703247;82;21041;-78
2022/11/21 11:10:39;;;;;;;65.97;38.73;;;;;;;4.31;100.00;96961.67;1623999;86;21549;-78
2022/11/21 11:16:14;;;;;;;74.47;42.93;;;;;;;4.41;100.00;96958.20;1711084;82;25827;-82
2022/11/21 11:18:49;;;;;;;68.87;41.23;;;;;;;4.47;100.00;96960.64;1704710;82;21029;-82
2022/11/21 11:21:40;;;;;;;64.58;38.40;;;;;;;4.51;100.00;96967.60;1702136;82;21512;-82
2022/11/21 11:24:16;;;;;;;71.92;42.35;;;;;;;4.49;100.00;96961.17;1706089;82;21611;-82
2022/11/21 11:26:59;;;;;;;75.60;47.33;;;;;;;4.50;100.00;96961.97;1672023;83;21047;-82
2022/11/21 11:29:31;;;;;;;72.95;45.55;;;;;;;4.53;100.00;96970.84;1703928;82;20976;-82
2022/11/21 11:32:05;;;;;;;71.97;43.28;;;;;;;4.53;100.00;96968.17;1690089;82;20973;-78
2022/11/21 11:34:41;;;;;;;71.85;43.23;;;;;;;4.56;100.00;96964.94;1701451;82;20977;-78
2022/11/21 11:37:33;;;;;;;48.50;31.57;;;;;;;4.60;100.00;96957.15;1702166;82;21146;-82
2022/11/21 11:40:31;;;;;;;67.17;44.42;;;;;;;4.65;100.00;96954.48;1703210;82;20990;-78
2022/11/21 11:52:38;;;;;;;62.55;38.75;;;;;;;4.76;100.00;96954.21;1715908;82;21682;-78
2022/11/21 11:55:07;;;;;;;51.70;32.30;;;;;;;4.85;100.00;96955.02;1719327;81;21068;-78